This is the latest recevied weather packets stored in our database for station/object SM0PQB-13. If no packets are shown the sender has not sent any weather packets the latest 10 day(s).
| Time | Temp. | Humidity | Pressure | Rain* | Wind** | Luminosity | Snow |
|---|---|---|---|---|---|---|---|
| 1777206553 | 27.78° C | 23% | 1013.2 hPa | - | - | - | - |
| 1777205953 | 32.22° C | 19% | 1013.2 hPa | - | - | - | - |
| 1777205352 | 30.56° C | 21% | 1013.1 hPa | - | - | - | - |
| 1777204753 | 28.33° C | 22% | 1013.2 hPa | - | - | - | - |
| 1777204153 | 31.67° C | 18% | 1013.2 hPa | - | - | - | - |
| 1777203553 | 30° C | 20% | 1013.2 hPa | - | - | - | - |
| 1777202952 | 31.67° C | 19% | 1013 hPa | - | - | - | - |
| 1777202352 | 30.56° C | 21% | 1013.1 hPa | - | - | - | - |
| 1777201752 | 27.22° C | 24% | 1013 hPa | - | - | - | - |
| 1777201153 | 27.78° C | 24% | 1013.2 hPa | - | - | - | - |
| 1777200552 | 26.67° C | 25% | 1013.1 hPa | - | - | - | - |
| 1777199953 | 26.67° C | 26% | 1013.2 hPa | - | - | - | - |
| 1777199352 | 25° C | 29% | 1013 hPa | - | - | - | - |
| 1777198752 | 23.33° C | 32% | 1013.2 hPa | - | - | - | - |
| 1777198153 | 23.33° C | 34% | 1013 hPa | - | - | - | - |
| 1777197552 | 23.33° C | 32% | 1012.9 hPa | - | - | - | - |
| 1777196954 | 22.78° C | 34% | 1013 hPa | - | - | - | - |
| 1777196352 | 22.78° C | 34% | 1012.8 hPa | - | - | - | - |
| 1777195752 | 22.78° C | 32% | 1012.9 hPa | - | - | - | - |
| 1777195155 | 22.78° C | 30% | 1012.7 hPa | - | - | - | - |
| 1777194555 | 22.22° C | 32% | 1012.8 hPa | - | - | - | - |
| 1777193952 | 22.22° C | 29% | 1012.7 hPa | - | - | - | - |
| 1777193352 | 22.22° C | 29% | 1012.7 hPa | - | - | - | - |
| 1777192753 | 22.22° C | 29% | 1012.6 hPa | - | - | - | - |
| 1777192157 | 22.22° C | 29% | 1012.5 hPa | - | - | - | - |
* Rain since midnight (hover to see other rain measurements)
** Current wind speed in m/s (hover to see current wind gust speed)